createdAt,value
2022-12-11T00:01:23.084Z,97670.75
2022-12-11T00:04:27.317Z,97682.31
2022-12-11T00:07:32.657Z,97655.44
2022-12-11T00:10:37.920Z,97704.66
2022-12-11T00:13:42.127Z,97624.09
2022-12-11T00:16:46.050Z,97637.91
2022-12-11T00:19:49.929Z,97614.03
2022-12-11T00:22:55.018Z,97590.06
2022-12-11T00:25:58.920Z,97594.59
2022-12-11T00:29:02.590Z,97602.25
2022-12-11T00:32:06.701Z,97614.72
2022-12-11T00:35:11.511Z,97613.66
2022-12-11T00:38:18.638Z,97598.69
2022-12-11T00:41:22.775Z,97603.50
2022-12-11T00:44:26.632Z,97624.66
2022-12-11T00:47:30.356Z,97612.22
2022-12-11T00:50:34.192Z,97644.56
2022-12-11T00:53:39.665Z,97630.19
2022-12-11T00:56:44.243Z,97599.84
2022-12-11T00:59:47.904Z,97608.53
2022-12-11T01:02:52.205Z,97599.88
2022-12-11T01:05:56.563Z,97592.22
2022-12-11T01:09:19.312Z,97564.34
2022-12-11T01:12:23.240Z,97549.09
2022-12-11T01:15:29.542Z,97547.81
2022-12-11T01:18:33.315Z,97547.53
2022-12-11T01:21:37.064Z,97566.22
2022-12-11T01:24:42.416Z,97567.09
2022-12-11T01:27:46.098Z,97567.78
2022-12-11T01:30:49.738Z,97535.69
2022-12-11T01:33:55.892Z,97529.44
2022-12-11T01:36:59.582Z,97520.63
2022-12-11T01:40:06.410Z,97538.97
2022-12-11T01:43:12.936Z,97518.63
2022-12-11T01:46:16.632Z,97472.63
2022-12-11T01:49:22.994Z,97459.03
2022-12-11T01:52:27.205Z,97418.31
2022-12-11T01:55:33.234Z,97394.84
2022-12-11T01:58:43.250Z,97419.31
2022-12-11T02:01:51.923Z,97412.97
2022-12-11T02:04:55.516Z,97415.75
2022-12-11T02:08:03.144Z,97441.88
2022-12-11T02:11:14.528Z,97460.78
2022-12-11T02:14:26.578Z,97423.59
2022-12-11T02:17:37.870Z,97426.97
2022-12-11T02:20:46.329Z,97426.00
2022-12-11T02:24:08.476Z,97432.63
2022-12-11T02:27:28.893Z,97421.78
2022-12-11T02:30:38.501Z,97419.75
2022-12-11T02:33:48.073Z,97416.16
2022-12-11T02:36:55.669Z,97438.66
2022-12-11T02:39:59.362Z,97419.75
2022-12-11T02:43:07.261Z,97401.84
2022-12-11T02:46:13.904Z,97381.56
2022-12-11T02:49:19.052Z,97399.47
2022-12-11T02:52:25.143Z,97398.44
2022-12-11T02:55:31.276Z,97374.50
2022-12-11T02:58:39.016Z,97390.25
2022-12-11T03:01:44.688Z,97388.19
2022-12-11T03:04:49.047Z,97388.19
2022-12-11T03:07:52.868Z,97406.47
2022-12-11T03:10:56.663Z,97431.81
2022-12-11T03:14:03.097Z,97411.91
2022-12-11T03:17:15.430Z,97408.25
2022-12-11T03:20:31.023Z,97386.72
2022-12-11T03:23:41.528Z,97410.81
2022-12-11T03:26:56.307Z,97441.41
2022-12-11T03:30:06.208Z,97433.13
2022-12-11T03:33:14.955Z,97425.44
2022-12-11T03:36:23.637Z,97423.56
2022-12-11T03:39:32.320Z,97425.13
2022-12-11T03:42:38.716Z,97416.09
2022-12-11T03:45:44.039Z,97434.56
2022-12-11T03:48:50.065Z,97434.13
2022-12-11T03:51:57.787Z,97434.44
2022-12-11T03:55:06.491Z,97415.13
2022-12-11T03:58:10.457Z,97414.75
2022-12-11T04:01:14.336Z,97418.78
2022-12-11T04:04:19.520Z,97431.47
2022-12-11T04:07:23.466Z,97438.50
2022-12-11T04:10:27.164Z,97440.34
2022-12-11T04:13:30.743Z,97425.44
2022-12-11T04:16:33.167Z,97428.44
2022-12-11T04:19:55.802Z,97437.09
2022-12-11T04:23:17.197Z,97435.31
2022-12-11T04:26:22.004Z,97440.13
2022-12-11T04:29:25.533Z,97428.00
2022-12-11T04:32:29.167Z,97424.41
2022-12-11T04:35:34.345Z,97432.81
2022-12-11T04:38:38.708Z,97433.44
2022-12-11T04:41:42.525Z,97432.38
2022-12-11T04:44:46.153Z,97433.75
2022-12-11T04:47:49.710Z,97443.41
2022-12-11T04:50:54.773Z,97451.16
2022-12-11T04:54:00.119Z,97444.50
2022-12-11T04:57:03.635Z,97436.31
2022-12-11T05:00:09.876Z,97448.03
2022-12-11T05:03:13.529Z,97448.66
2022-12-11T05:06:18.676Z,97457.25
2022-12-11T05:09:22.258Z,97451.81
2022-12-11T05:12:25.831Z,97463.41
2022-12-11T05:15:29.441Z,97459.94
2022-12-11T05:18:33.173Z,97461.63
2022-12-11T05:21:38.186Z,97462.84
2022-12-11T05:24:41.827Z,97467.91
2022-12-11T05:27:45.754Z,97471.41
2022-12-11T05:30:49.286Z,97473.59
2022-12-11T05:33:53.650Z,97488.28
2022-12-11T05:36:58.709Z,97495.59
2022-12-11T05:40:02.554Z,97508.25
2022-12-11T05:43:06.048Z,97510.09
2022-12-11T05:46:11.836Z,97508.06
2022-12-11T05:49:19.652Z,97488.97
2022-12-11T05:52:24.973Z,97486.75
2022-12-11T05:55:28.461Z,97495.59
2022-12-11T05:58:32.757Z,97499.69
2022-12-11T06:01:38.273Z,97519.44
2022-12-11T06:04:41.955Z,97548.16
2022-12-11T06:07:47.161Z,97550.19
2022-12-11T06:10:52.117Z,97554.59
2022-12-11T06:13:56.726Z,97570.84
2022-12-11T06:17:00.429Z,97571.72
2022-12-11T06:20:04.315Z,97574.69
2022-12-11T06:23:09.755Z,97559.84
2022-12-11T06:26:14.064Z,97578.16
2022-12-11T06:29:18.349Z,97566.06
2022-12-11T06:32:22.149Z,97572.31
2022-12-11T06:35:25.822Z,97578.75
2022-12-11T06:38:31.177Z,97571.88
2022-12-11T06:41:35.095Z,97563.81
2022-12-11T06:44:38.938Z,97571.25
2022-12-11T06:47:42.816Z,97574.22
2022-12-11T06:50:46.598Z,97581.84
2022-12-11T06:53:54.903Z,97579.97
2022-12-11T06:56:58.608Z,97580.59
2022-12-11T07:00:02.565Z,97591.34
2022-12-11T07:03:06.795Z,97591.69
2022-12-11T07:06:10.744Z,97602.00
2022-12-11T07:09:16.058Z,97601.91
2022-12-11T07:12:19.909Z,97591.44
2022-12-11T07:15:23.648Z,97606.31
2022-12-11T07:18:27.896Z,97604.72
2022-12-11T07:21:31.718Z,97607.41
2022-12-11T07:24:37.159Z,97593.03
2022-12-11T07:27:41.804Z,97607.56
2022-12-11T07:30:45.849Z,97595.09
2022-12-11T07:33:49.684Z,97596.44
2022-12-11T07:36:53.609Z,97597.19
2022-12-11T07:39:59.035Z,97605.16
2022-12-11T07:43:02.926Z,97607.03
2022-12-11T07:46:09.603Z,97608.94
2022-12-11T07:49:13.755Z,97594.22
2022-12-11T07:52:17.856Z,97590.69
2022-12-11T07:55:25.589Z,97605.53
2022-12-11T07:58:29.844Z,97595.75
2022-12-11T08:01:36.708Z,97605.31
2022-12-11T08:04:40.936Z,97605.44
2022-12-11T08:07:44.774Z,97620.81
2022-12-11T08:10:50.130Z,97626.00
2022-12-11T08:13:54.096Z,97641.63
2022-12-11T08:16:58.364Z,97640.91
2022-12-11T08:20:02.150Z,97630.50
2022-12-11T08:23:06.098Z,97633.00
2022-12-11T08:26:13.152Z,97615.06
2022-12-11T08:29:16.889Z,97604.00
2022-12-11T08:32:20.829Z,97602.63
2022-12-11T08:35:27.416Z,97601.97
2022-12-11T08:38:31.797Z,97583.44
2022-12-11T08:41:37.656Z,97589.94
2022-12-11T08:44:41.489Z,97585.34
2022-12-11T08:47:45.416Z,97602.19
2022-12-11T08:50:49.336Z,97590.78
2022-12-11T08:53:56.169Z,97607.50
2022-12-11T08:57:01.480Z,97615.34
2022-12-11T09:00:06.210Z,97624.13
2022-12-11T09:03:12.979Z,97644.09
2022-12-11T09:06:19.684Z,97658.47
2022-12-11T09:09:23.552Z,97662.69
2022-12-11T09:12:29.190Z,97649.44
2022-12-11T09:15:33.058Z,97637.41
2022-12-11T09:18:37.010Z,97644.38
2022-12-11T09:21:40.841Z,97635.81
2022-12-11T09:24:44.749Z,97626.31
2022-12-11T09:27:50.069Z,97613.94
2022-12-11T09:30:54.260Z,97606.16
2022-12-11T09:34:02.900Z,97600.66
2022-12-11T09:37:06.811Z,97581.22
2022-12-11T09:40:12.812Z,97578.94
2022-12-11T09:43:29.656Z,97565.41
2022-12-11T09:46:34.807Z,97563.00
2022-12-11T09:49:43.016Z,97560.94
2022-12-11T09:53:08.657Z,97555.41
2022-12-11T09:56:19.390Z,97547.00
2022-12-11T09:59:32.074Z,97564.78
2022-12-11T10:02:48.447Z,97573.03
2022-12-11T10:06:04.772Z,97571.81
2022-12-11T10:09:21.130Z,97558.38
2022-12-11T10:12:38.528Z,97553.06
2022-12-11T10:15:50.961Z,97561.06
2022-12-11T10:18:55.536Z,97552.84
2022-12-11T10:22:01.289Z,97538.88
2022-12-11T10:25:11.650Z,97529.66
2022-12-11T10:28:17.757Z,97533.66
2022-12-11T10:31:33.938Z,97524.63
2022-12-11T10:34:41.790Z,97512.19
2022-12-11T10:37:45.751Z,97496.13
2022-12-11T10:40:52.663Z,97471.84
2022-12-11T10:43:56.534Z,97471.47
2022-12-11T10:47:07.836Z,97471.00
2022-12-11T10:50:25.260Z,97461.91
2022-12-11T10:53:30.717Z,97471.72
2022-12-11T10:56:37.565Z,97467.25
2022-12-11T10:59:47.629Z,97471.50
2022-12-11T11:02:52.939Z,97482.53
2022-12-11T11:06:05.176Z,97472.22
2022-12-11T11:09:30.618Z,97479.97
2022-12-11T11:12:41.216Z,97481.97
2022-12-11T11:15:45.232Z,97480.22
2022-12-11T11:18:56.797Z,97478.59
2022-12-11T11:22:07.031Z,97483.88
2022-12-11T11:25:20.396Z,97476.50
2022-12-11T11:28:27.896Z,97480.44
2022-12-11T11:31:36.467Z,97475.66
2022-12-11T11:34:41.736Z,97474.38
2022-12-11T11:37:48.743Z,97467.75
2022-12-11T11:41:04.876Z,97467.75
2022-12-11T11:44:17.190Z,97468.16
2022-12-11T11:47:26.069Z,97469.84
2022-12-11T11:50:36.956Z,97467.75
2022-12-11T11:53:42.033Z,97463.34
2022-12-11T11:56:46.019Z,97465.97
2022-12-11T11:59:56.210Z,97464.94
2022-12-11T12:03:05.019Z,97463.16
2022-12-11T12:06:19.135Z,97463.81
2022-12-11T12:09:35.877Z,97443.44
2022-12-11T12:12:51.208Z,97445.59
2022-12-11T12:15:58.591Z,97449.13
2022-12-11T12:19:10.251Z,97446.59
2022-12-11T12:22:33.604Z,97435.13
2022-12-11T12:25:43.416Z,97426.19
2022-12-11T12:28:54.140Z,97426.19
2022-12-11T12:32:09.949Z,97422.38
2022-12-11T12:35:24.297Z,97423.66
2022-12-11T12:38:41.777Z,97424.69
2022-12-11T12:41:56.377Z,97428.94
2022-12-11T12:45:05.230Z,97426.34
2022-12-11T12:48:10.769Z,97427.81
2022-12-11T12:51:16.355Z,97431.84
2022-12-11T12:54:23.169Z,97429.69
2022-12-11T12:57:26.997Z,97418.50
2022-12-11T13:00:37.084Z,97422.66
2022-12-11T13:03:52.634Z,97426.41
2022-12-11T13:06:57.150Z,97425.28
2022-12-11T13:10:06.836Z,97436.72
2022-12-11T13:13:33.609Z,97434.56
2022-12-11T13:16:39.909Z,97434.56
2022-12-11T13:19:43.910Z,97437.53
2022-12-11T13:22:55.319Z,97427.91
2022-12-11T13:26:02.616Z,97425.22
2022-12-11T13:29:06.931Z,97424.41
2022-12-11T13:32:25.697Z,97426.41
2022-12-11T13:35:29.851Z,97421.63
2022-12-11T13:38:34.189Z,97421.97
2022-12-11T13:41:40.509Z,97425.47
2022-12-11T13:44:48.880Z,97424.09
2022-12-11T13:47:52.852Z,97429.44
2022-12-11T13:50:59.131Z,97437.16
2022-12-11T13:54:17.500Z,97444.66
2022-12-11T13:57:26.049Z,97455.69
2022-12-11T14:00:33.037Z,97448.44
2022-12-11T14:03:37.495Z,97441.69
2022-12-11T14:06:41.875Z,97455.00
2022-12-11T14:09:47.424Z,97468.03
2022-12-11T14:12:58.155Z,97462.63
2022-12-11T14:16:02.787Z,97471.25
2022-12-11T14:19:10.096Z,97477.34
2022-12-11T14:22:20.975Z,97477.91
2022-12-11T14:25:27.430Z,97472.50
2022-12-11T14:28:40.368Z,97480.84
2022-12-11T14:31:45.988Z,97494.09
2022-12-11T14:34:51.689Z,97484.97
2022-12-11T14:37:57.196Z,97502.41
2022-12-11T14:41:05.317Z,97489.44
2022-12-11T14:44:16.536Z,97504.34
2022-12-11T14:47:24.011Z,97501.72
2022-12-11T14:50:31.569Z,97488.41
2022-12-11T14:53:39.836Z,97498.38
2022-12-11T14:56:47.893Z,97502.94
2022-12-11T14:59:55.729Z,97497.34
2022-12-11T15:03:01.673Z,97492.19
2022-12-11T15:06:24.416Z,97508.00
2022-12-11T15:09:31.119Z,97489.81
2022-12-11T15:12:35.758Z,97481.38
2022-12-11T15:15:47.748Z,97482.97
2022-12-11T15:18:53.892Z,97478.94
2022-12-11T15:22:04.536Z,97492.72
2022-12-11T15:25:19.150Z,97502.00
2022-12-11T15:28:30.516Z,97511.66
2022-12-11T15:31:36.756Z,97528.25
2022-12-11T15:34:45.812Z,97519.22
2022-12-11T15:37:54.797Z,97530.66
2022-12-11T15:40:59.076Z,97516.69
2022-12-11T15:44:05.296Z,97528.81
2022-12-11T15:47:15.637Z,97536.03
2022-12-11T15:50:21.990Z,97525.97
2022-12-11T15:53:25.978Z,97531.25
2022-12-11T15:56:30.270Z,97521.22
2022-12-11T15:59:34.571Z,97522.00
2022-12-11T16:02:39.938Z,97529.22
2022-12-11T16:05:44.131Z,97526.34
2022-12-11T16:08:47.999Z,97530.09
2022-12-11T16:11:52.210Z,97528.06
2022-12-11T16:14:56.591Z,97523.13
2022-12-11T16:18:07.360Z,97525.88
2022-12-11T16:21:12.189Z,97514.34
2022-12-11T16:24:18.110Z,97512.59
2022-12-11T16:27:23.323Z,97512.19
2022-12-11T16:30:28.291Z,97513.31
2022-12-11T16:33:33.818Z,97512.41
2022-12-11T16:36:38.255Z,97513.44
2022-12-11T16:39:42.856Z,97503.50
2022-12-11T16:42:47.011Z,97511.28
2022-12-11T16:45:55.716Z,97516.88
2022-12-11T16:49:01.109Z,97535.88
2022-12-11T16:52:04.976Z,97553.03
2022-12-11T16:55:10.293Z,97553.03
2022-12-11T16:58:18.969Z,97562.16
2022-12-11T17:01:23.005Z,97559.84
2022-12-11T17:04:29.196Z,97558.47
2022-12-11T17:07:33.415Z,97579.50
2022-12-11T17:10:41.235Z,97580.84
2022-12-11T17:13:45.894Z,97605.13
2022-12-11T17:16:49.839Z,97611.22
2022-12-11T17:19:55.150Z,97621.69
2022-12-11T17:22:58.971Z,97617.28
2022-12-11T17:26:02.956Z,97618.97
2022-12-11T17:29:07.216Z,97625.53
2022-12-11T17:32:11.236Z,97639.97
2022-12-11T17:35:16.776Z,97645.88
2022-12-11T17:38:20.543Z,97648.06
2022-12-11T17:41:24.601Z,97656.94
2022-12-11T17:44:30.799Z,97679.31
2022-12-11T17:47:34.619Z,97685.16
2022-12-11T17:50:43.255Z,97694.25
2022-12-11T17:53:47.126Z,97719.72
2022-12-11T17:56:50.972Z,97734.63
2022-12-11T17:59:56.290Z,97759.44
2022-12-11T18:03:00.242Z,97757.09
2022-12-11T18:06:09.050Z,97779.66
2022-12-11T18:09:12.956Z,97796.63
2022-12-11T18:12:17.916Z,97804.31
2022-12-11T18:15:21.968Z,97814.63
2022-12-11T18:18:25.839Z,97822.31
2022-12-11T18:21:33.877Z,97843.88
2022-12-11T18:24:37.729Z,97864.81
2022-12-11T18:27:41.810Z,97857.13
2022-12-11T18:30:45.830Z,97870.63
2022-12-11T18:33:50.097Z,97860.28
2022-12-11T18:36:55.910Z,97856.28
2022-12-11T18:40:00.413Z,97857.25
2022-12-11T18:43:04.357Z,97850.91
2022-12-11T18:46:09.037Z,97863.19
2022-12-11T18:49:13.110Z,97867.59
2022-12-11T18:52:18.591Z,97878.56
2022-12-11T18:55:22.676Z,97883.97
2022-12-11T18:58:26.576Z,97898.41
2022-12-11T19:01:33.303Z,97899.69
2022-12-11T19:04:37.975Z,97907.78
2022-12-11T19:07:43.336Z,97909.72
2022-12-11T19:10:48.837Z,97914.59
2022-12-11T19:13:53.673Z,97906.66
2022-12-11T19:16:57.715Z,97908.00
2022-12-11T19:20:18.773Z,97913.63
2022-12-11T19:23:27.129Z,97912.44
2022-12-11T19:26:31.392Z,97905.25
2022-12-11T19:29:35.292Z,97917.13
2022-12-11T19:32:39.157Z,97920.00
2022-12-11T19:35:43.583Z,97924.13
2022-12-11T19:38:49.529Z,97917.00
2022-12-11T19:41:53.475Z,97927.88
2022-12-11T19:44:57.331Z,97917.81
2022-12-11T19:48:01.195Z,97912.78
2022-12-11T19:51:06.795Z,97918.47
2022-12-11T19:54:16.403Z,97916.50
2022-12-11T19:57:20.249Z,97927.09
2022-12-11T20:00:24.808Z,97928.47
2022-12-11T20:03:29.215Z,97929.94
2022-12-11T20:06:34.636Z,97929.53
2022-12-11T20:09:40.019Z,97936.84
2022-12-11T20:12:43.977Z,97941.94
2022-12-11T20:15:47.770Z,97940.94
2022-12-11T20:18:52.197Z,97951.72
2022-12-11T20:21:57.011Z,97951.84
2022-12-11T20:25:02.297Z,97954.78
2022-12-11T20:28:06.558Z,97937.06
2022-12-11T20:31:19.569Z,97944.06
2022-12-11T20:34:23.971Z,97948.19
2022-12-11T20:37:29.362Z,97952.53
2022-12-11T20:40:34.935Z,97952.31
2022-12-11T20:43:39.717Z,97964.13
2022-12-11T20:46:43.710Z,97971.25
2022-12-11T20:49:47.596Z,97963.75
2022-12-11T20:52:51.490Z,97968.06
2022-12-11T20:55:56.831Z,97967.97
2022-12-11T20:59:01.558Z,97981.16
2022-12-11T21:02:05.935Z,97990.91
2022-12-11T21:05:10.572Z,97998.50
2022-12-11T21:08:14.987Z,97990.53
2022-12-11T21:11:20.658Z,97986.31
2022-12-11T21:14:26.902Z,97999.00
2022-12-11T21:17:30.816Z,98001.88
2022-12-11T21:20:35.145Z,98009.78
2022-12-11T21:23:39.015Z,98016.72
2022-12-11T21:26:44.435Z,98014.56
2022-12-11T21:29:48.335Z,98019.06
2022-12-11T21:32:52.156Z,98021.16
2022-12-11T21:35:57.536Z,98004.78
2022-12-11T21:39:02.788Z,98004.31
2022-12-11T21:42:08.038Z,98009.59
2022-12-11T21:48:36.569Z,98032.72
2022-12-11T21:51:46.828Z,98042.69
2022-12-11T21:54:51.317Z,98049.41
2022-12-11T21:57:57.309Z,98043.38
2022-12-11T22:01:01.233Z,98053.44
2022-12-11T22:04:06.416Z,98073.44
2022-12-11T22:07:10.270Z,98067.03
2022-12-11T22:10:14.030Z,98057.63
2022-12-11T22:13:19.388Z,98068.50
2022-12-11T22:16:23.462Z,98056.34
2022-12-11T22:19:32.281Z,98047.38
2022-12-11T22:22:36.628Z,98041.91
2022-12-11T22:25:40.796Z,98034.69
2022-12-11T22:28:46.284Z,98031.59
2022-12-11T22:31:50.184Z,98029.28
2022-12-11T22:34:54.555Z,98034.50
2022-12-11T22:37:58.505Z,98039.63
2022-12-11T22:41:04.915Z,98048.78
2022-12-11T22:44:15.965Z,98054.78
2022-12-11T22:47:20.429Z,98049.22
2022-12-11T22:50:24.334Z,98047.72
2022-12-11T22:53:28.183Z,98035.63
2022-12-11T22:56:32.429Z,98044.06
2022-12-11T22:59:38.049Z,98046.66
2022-12-11T23:02:43.215Z,98061.72
2022-12-11T23:05:47.175Z,98059.34
2022-12-11T23:08:51.437Z,98069.19
2022-12-11T23:11:55.935Z,98069.34
2022-12-11T23:15:04.243Z,98074.81
2022-12-11T23:18:08.260Z,98067.97
2022-12-11T23:21:13.228Z,98062.53
2022-12-11T23:24:17.069Z,98074.75
2022-12-11T23:27:20.956Z,98068.09
2022-12-11T23:30:26.318Z,98074.31
2022-12-11T23:33:30.295Z,98084.22
2022-12-11T23:36:34.535Z,98085.84
2022-12-11T23:39:38.496Z,98091.56
2022-12-11T23:42:42.209Z,98082.56
2022-12-11T23:45:48.344Z,98085.00
2022-12-11T23:48:52.926Z,98092.69
2022-12-11T23:51:57.017Z,98099.66
2022-12-11T23:55:00.802Z,98105.97
2022-12-11T23:58:04.696Z,98123.69
